createdAt,value
2023-04-09T00:00:41.592Z,0.68
2023-04-09T00:01:41.679Z,0.69
2023-04-09T00:02:41.779Z,0.68
2023-04-09T00:03:41.767Z,0.68
2023-04-09T00:04:41.800Z,0.68
2023-04-09T00:05:41.765Z,0.69
2023-04-09T00:06:41.786Z,0.68
2023-04-09T00:07:44.256Z,0.68
2023-04-09T00:08:42.091Z,0.68
2023-04-09T00:09:42.105Z,0.69
2023-04-09T00:10:42.174Z,0.68
2023-04-09T00:11:42.184Z,0.67
2023-04-09T00:12:42.194Z,0.68
2023-04-09T00:13:42.278Z,0.68
2023-04-09T00:14:42.269Z,0.68
2023-04-09T00:15:42.311Z,0.69
2023-04-09T00:16:42.398Z,0.69
2023-04-09T00:17:42.410Z,0.69
2023-04-09T00:18:42.443Z,0.69
2023-04-09T00:19:42.484Z,0.69
2023-04-09T00:20:42.501Z,0.68
2023-04-09T00:21:42.557Z,0.69
2023-04-09T00:22:42.600Z,0.69
2023-04-09T00:23:42.602Z,0.69
2023-04-09T00:24:42.625Z,0.69
2023-04-09T00:25:42.644Z,0.69
2023-04-09T00:26:42.692Z,0.69
2023-04-09T00:27:42.711Z,0.69
2023-04-09T00:28:42.753Z,0.70
2023-04-09T00:29:42.754Z,0.68
2023-04-09T00:30:42.800Z,0.69
2023-04-09T00:31:42.878Z,0.69
2023-04-09T00:32:42.864Z,0.68
2023-04-09T00:33:42.890Z,0.70
2023-04-09T00:34:42.909Z,0.69
2023-04-09T00:35:43.004Z,0.69
2023-04-09T00:36:42.977Z,0.69
2023-04-09T00:37:42.990Z,0.68
2023-04-09T00:38:43.061Z,0.70
2023-04-09T00:39:43.091Z,0.69
2023-04-09T00:40:43.129Z,0.70
2023-04-09T00:41:43.139Z,0.68
2023-04-09T00:42:43.204Z,0.69
2023-04-09T00:43:43.261Z,0.69
2023-04-09T00:44:43.261Z,0.69
2023-04-09T00:45:43.300Z,0.68
2023-04-09T00:46:43.292Z,0.68
2023-04-09T00:47:43.341Z,0.70
2023-04-09T00:48:43.346Z,0.70
2023-04-09T00:49:43.392Z,0.69
2023-04-09T00:50:43.419Z,0.68
2023-04-09T00:51:43.485Z,0.69
2023-04-09T00:52:43.511Z,0.68
2023-04-09T00:53:43.532Z,0.68
2023-04-09T00:54:43.561Z,0.68
2023-04-09T00:55:43.593Z,0.68
2023-04-09T00:56:43.652Z,0.70
2023-04-09T00:57:43.686Z,0.69
2023-04-09T00:58:43.674Z,0.69
2023-04-09T00:59:43.722Z,0.71
2023-04-09T01:00:43.749Z,0.69
2023-04-09T01:01:43.820Z,0.69
2023-04-09T01:02:43.932Z,0.68
2023-04-09T01:03:43.913Z,0.68
2023-04-09T01:04:43.873Z,0.69
2023-04-09T01:05:43.920Z,0.68
2023-04-09T01:06:43.916Z,0.69
2023-04-09T01:07:43.964Z,0.69
2023-04-09T01:08:44.024Z,0.69
2023-04-09T01:09:44.022Z,0.69
2023-04-09T01:10:44.084Z,0.68
2023-04-09T01:11:44.106Z,0.70
2023-04-09T01:12:44.137Z,0.70
2023-04-09T01:13:44.171Z,0.69
2023-04-09T01:14:44.192Z,0.69
2023-04-09T01:15:44.294Z,0.70
2023-04-09T01:16:44.301Z,0.69
2023-04-09T01:17:44.361Z,0.68
2023-04-09T01:18:44.325Z,0.70
2023-04-09T01:19:44.341Z,0.69
2023-04-09T01:20:44.382Z,0.69
2023-04-09T01:21:44.405Z,0.69
2023-04-09T01:22:44.422Z,0.69
2023-04-09T01:23:44.457Z,0.69
2023-04-09T01:24:44.488Z,0.69
2023-04-09T01:25:44.516Z,0.69
2023-04-09T01:26:44.576Z,0.70
2023-04-09T01:27:44.590Z,0.70
2023-04-09T01:28:44.609Z,0.69
2023-04-09T01:29:44.646Z,0.68
2023-04-09T01:30:44.704Z,0.70
2023-04-09T01:31:44.702Z,0.68
2023-04-09T01:32:44.777Z,0.69
2023-04-09T01:33:44.744Z,0.70
2023-04-09T01:34:44.818Z,0.69
2023-04-09T01:35:44.844Z,0.70
2023-04-09T01:36:44.852Z,0.69
2023-04-09T01:37:44.870Z,0.70
2023-04-09T01:38:44.916Z,0.69
2023-04-09T01:39:44.937Z,0.69
2023-04-09T01:40:44.972Z,0.70
2023-04-09T01:41:45.038Z,0.70
2023-04-09T01:42:45.028Z,0.69
2023-04-09T01:43:45.076Z,0.70
2023-04-09T01:44:45.102Z,0.70
2023-04-09T01:45:45.176Z,0.70
2023-04-09T01:46:45.949Z,0.70
2023-04-09T01:47:45.174Z,0.69
2023-04-09T01:48:45.218Z,0.70
2023-04-09T01:49:45.247Z,0.69
2023-04-09T01:50:45.272Z,0.69
2023-04-09T01:51:45.301Z,0.69
2023-04-09T01:52:45.298Z,0.70
2023-04-09T01:53:45.342Z,0.70
2023-04-09T01:54:45.365Z,0.69
2023-04-09T01:55:45.383Z,0.69
2023-04-09T01:56:45.444Z,0.69
2023-04-09T01:57:45.424Z,0.69
2023-04-09T01:58:45.473Z,0.69
2023-04-09T01:59:45.519Z,0.69
2023-04-09T02:00:45.520Z,0.69
2023-04-09T02:01:45.679Z,0.69
2023-04-09T02:02:45.721Z,0.70
2023-04-09T02:03:45.792Z,0.69
2023-04-09T02:04:45.690Z,0.70
2023-04-09T02:05:45.711Z,0.70
2023-04-09T02:06:45.729Z,0.69
2023-04-09T02:07:45.763Z,0.68
2023-04-09T02:08:45.795Z,0.68
2023-04-09T02:09:45.853Z,0.70
2023-04-09T02:10:45.838Z,0.69
2023-04-09T02:11:45.880Z,0.68
2023-04-09T02:12:45.921Z,0.69
2023-04-09T02:13:45.954Z,0.71
2023-04-09T02:14:45.974Z,0.70
2023-04-09T02:15:46.059Z,0.70
2023-04-09T02:16:46.045Z,0.70
2023-04-09T02:17:46.139Z,0.69
2023-04-09T02:18:46.083Z,0.69
2023-04-09T02:19:46.193Z,0.69
2023-04-09T02:20:46.153Z,0.68
2023-04-09T02:21:46.203Z,0.69
2023-04-09T02:22:46.217Z,0.69
2023-04-09T02:23:46.953Z,0.69
2023-04-09T02:24:46.310Z,0.70
2023-04-09T02:25:46.336Z,0.70
2023-04-09T02:26:46.344Z,0.68
2023-04-09T02:27:46.389Z,0.69
2023-04-09T02:28:46.417Z,0.69
2023-04-09T02:29:46.428Z,0.69
2023-04-09T02:30:46.535Z,0.70
2023-04-09T02:31:46.514Z,0.69
2023-04-09T02:32:46.542Z,0.70
2023-04-09T02:33:46.566Z,0.69
2023-04-09T02:34:46.620Z,0.70
2023-04-09T02:35:46.651Z,0.69
2023-04-09T02:36:46.666Z,0.70
2023-04-09T02:37:46.722Z,0.68
2023-04-09T02:38:46.726Z,0.69
2023-04-09T02:39:46.796Z,0.68
2023-04-09T02:40:46.804Z,0.69
2023-04-09T02:41:46.826Z,0.69
2023-04-09T02:42:46.851Z,0.70
2023-04-09T02:43:46.888Z,0.69
2023-04-09T02:44:46.892Z,0.70
2023-04-09T02:45:46.942Z,0.70
2023-04-09T02:46:47.067Z,0.70
2023-04-09T02:47:47.001Z,0.69
2023-04-09T02:48:47.058Z,0.69
2023-04-09T02:49:47.090Z,0.69
2023-04-09T02:50:47.087Z,0.69
2023-04-09T02:51:47.140Z,0.68
2023-04-09T02:52:47.165Z,0.69
2023-04-09T02:53:47.220Z,0.69
2023-04-09T02:54:47.251Z,0.69
2023-04-09T02:55:47.262Z,0.69
2023-04-09T02:56:47.304Z,0.70
2023-04-09T02:57:47.343Z,0.69
2023-04-09T02:58:47.363Z,0.69
2023-04-09T02:59:47.431Z,0.70
2023-04-09T03:00:47.471Z,0.69
2023-04-09T03:01:47.549Z,0.70
2023-04-09T03:02:47.589Z,0.69
2023-04-09T03:03:47.621Z,0.69
2023-04-09T03:04:47.545Z,0.70
2023-04-09T03:05:47.569Z,0.69
2023-04-09T03:06:47.627Z,0.69
2023-04-09T03:07:47.675Z,0.69
2023-04-09T03:08:47.696Z,0.70
2023-04-09T03:09:47.709Z,0.69
2023-04-09T03:10:47.762Z,0.69
2023-04-09T03:11:47.775Z,0.69
2023-04-09T03:12:47.807Z,0.71
2023-04-09T03:13:47.854Z,0.69
2023-04-09T03:14:47.862Z,0.69
2023-04-09T03:15:47.932Z,0.70
2023-04-09T03:16:47.926Z,0.68
2023-04-09T03:17:48.015Z,0.69
2023-04-09T03:18:48.029Z,0.69
2023-04-09T03:19:48.024Z,0.69
2023-04-09T03:20:48.046Z,0.69
2023-04-09T03:21:48.074Z,0.70
2023-04-09T03:22:48.107Z,0.68
2023-04-09T03:23:48.148Z,0.69
2023-04-09T03:24:48.211Z,0.69
2023-04-09T03:25:48.219Z,0.70
2023-04-09T03:26:48.325Z,0.69
2023-04-09T03:27:48.291Z,0.69
2023-04-09T03:28:48.325Z,0.69
2023-04-09T03:29:48.366Z,0.69
2023-04-09T03:30:48.403Z,0.70
2023-04-09T03:31:48.424Z,0.70
2023-04-09T03:32:48.497Z,0.69
2023-04-09T03:33:48.493Z,0.69
2023-04-09T03:34:48.540Z,0.69
2023-04-09T03:35:48.624Z,0.69
2023-04-09T03:36:48.564Z,0.70
2023-04-09T03:37:48.603Z,0.69
2023-04-09T03:38:48.668Z,0.68
2023-04-09T03:39:48.645Z,0.69
2023-04-09T03:40:48.704Z,0.69
2023-04-09T03:41:48.710Z,0.69
2023-04-09T03:42:48.725Z,0.70
2023-04-09T03:43:48.783Z,0.70
2023-04-09T03:44:48.770Z,0.68
2023-04-09T03:45:49.499Z,0.68
2023-04-09T03:46:48.945Z,0.70
2023-04-09T03:47:48.902Z,0.70
2023-04-09T03:48:48.890Z,0.70
2023-04-09T03:49:48.928Z,0.70
2023-04-09T03:50:48.957Z,0.69
2023-04-09T03:51:48.986Z,0.69
2023-04-09T03:52:49.015Z,0.70
2023-04-09T03:53:49.034Z,0.69
2023-04-09T03:54:49.091Z,0.69
2023-04-09T03:55:49.103Z,0.69
2023-04-09T03:56:49.124Z,0.69
2023-04-09T03:57:49.153Z,0.69
2023-04-09T03:58:49.203Z,0.69
2023-04-09T03:59:49.233Z,0.70
2023-04-09T04:00:49.276Z,0.68
2023-04-09T04:01:49.369Z,0.69
2023-04-09T04:02:49.581Z,0.70
2023-04-09T04:03:49.528Z,0.69
2023-04-09T04:04:49.499Z,0.70
2023-04-09T04:05:49.463Z,0.69
2023-04-09T04:06:49.461Z,0.69
2023-04-09T04:07:49.502Z,0.70
2023-04-09T04:08:49.746Z,0.69
2023-04-09T04:09:49.555Z,0.69
2023-04-09T04:10:49.590Z,0.69
2023-04-09T04:11:49.587Z,0.70
2023-04-09T04:12:49.690Z,0.70
2023-04-09T04:13:49.635Z,0.69
2023-04-09T04:14:49.688Z,0.70
2023-04-09T04:15:49.710Z,0.69
2023-04-09T04:16:49.706Z,0.71
2023-04-09T04:17:49.788Z,0.69
2023-04-09T04:18:50.074Z,0.68
2023-04-09T04:19:49.838Z,0.69
2023-04-09T04:20:49.823Z,0.69
2023-04-09T04:21:49.835Z,0.68
2023-04-09T04:22:49.888Z,0.69
2023-04-09T04:23:49.923Z,0.68
2023-04-09T04:24:49.955Z,0.69
2023-04-09T04:25:49.987Z,0.69
2023-04-09T04:26:49.956Z,0.68
2023-04-09T04:27:50.017Z,0.71
2023-04-09T04:28:50.311Z,0.69
2023-04-09T04:29:50.069Z,0.69
2023-04-09T04:30:50.099Z,0.69
2023-04-09T04:31:50.122Z,0.69
2023-04-09T04:32:50.177Z,0.69
2023-04-09T04:33:50.189Z,0.69
2023-04-09T04:34:50.201Z,0.69
2023-04-09T04:35:50.267Z,0.69
2023-04-09T04:36:50.273Z,0.69
2023-04-09T04:37:50.278Z,0.69
2023-04-09T04:38:50.641Z,0.68
2023-04-09T04:39:50.323Z,0.69
2023-04-09T04:40:50.359Z,0.69
2023-04-09T04:41:50.371Z,0.68
2023-04-09T04:42:50.388Z,0.67
2023-04-09T04:43:50.421Z,0.69
2023-04-09T04:44:50.463Z,0.68
2023-04-09T04:45:51.857Z,0.69
2023-04-09T04:46:50.648Z,0.69
2023-04-09T04:47:50.728Z,0.68
2023-04-09T04:48:50.952Z,0.69
2023-04-09T04:49:50.701Z,0.69
2023-04-09T04:50:50.769Z,0.68
2023-04-09T04:51:50.780Z,0.68
2023-04-09T04:52:50.830Z,0.68
2023-04-09T04:53:50.852Z,0.69
2023-04-09T04:54:50.888Z,0.70
2023-04-09T04:55:50.933Z,0.68
2023-04-09T04:56:50.937Z,0.69
2023-04-09T04:57:50.954Z,0.68
2023-04-09T04:58:51.289Z,0.68
2023-04-09T04:59:51.036Z,0.69
2023-04-09T05:00:51.072Z,0.68
2023-04-09T05:01:51.100Z,0.68
2023-04-09T05:02:51.300Z,0.69
2023-04-09T05:03:51.212Z,0.68
2023-04-09T05:04:51.122Z,0.68
2023-04-09T05:05:51.192Z,0.69
2023-04-09T05:06:51.205Z,0.68
2023-04-09T05:07:51.223Z,0.70
2023-04-09T05:08:51.540Z,0.68
2023-04-09T05:09:51.264Z,0.69
2023-04-09T05:10:51.322Z,0.68
2023-04-09T05:11:51.332Z,0.70
2023-04-09T05:12:51.412Z,0.67
2023-04-09T05:13:51.400Z,0.68
2023-04-09T05:14:51.397Z,0.69
2023-04-09T05:15:51.454Z,0.68
2023-04-09T05:16:51.543Z,0.69
2023-04-09T05:17:51.573Z,0.69
2023-04-09T05:18:51.766Z,0.70
2023-04-09T05:19:51.548Z,0.69
2023-04-09T05:20:51.555Z,0.69
2023-04-09T05:21:51.586Z,0.69
2023-04-09T05:22:51.625Z,0.68
2023-04-09T05:23:51.633Z,0.70
2023-04-09T05:24:51.691Z,0.69
2023-04-09T05:25:51.698Z,0.69
2023-04-09T05:26:51.702Z,0.69
2023-04-09T05:27:51.742Z,0.68
2023-04-09T05:28:51.847Z,0.68
2023-04-09T05:29:51.786Z,0.69
2023-04-09T05:30:51.895Z,0.69
2023-04-09T05:31:51.872Z,0.69
2023-04-09T05:32:51.890Z,0.69
2023-04-09T05:33:51.907Z,0.70
2023-04-09T05:34:51.966Z,0.70
2023-04-09T05:35:52.034Z,0.69
2023-04-09T05:36:52.001Z,0.69
2023-04-09T05:37:52.052Z,0.69
2023-04-09T05:38:52.480Z,0.70
2023-04-09T05:39:52.124Z,0.68
2023-04-09T05:40:52.134Z,0.69
2023-04-09T05:41:52.139Z,0.69
2023-04-09T05:42:52.174Z,0.69
2023-04-09T05:43:52.384Z,0.69
2023-04-09T05:44:52.221Z,0.70
2023-04-09T05:45:52.272Z,0.69
2023-04-09T05:46:52.306Z,0.69
2023-04-09T05:47:52.332Z,0.69
2023-04-09T05:48:52.641Z,0.68
2023-04-09T05:49:52.418Z,0.70
2023-04-09T05:50:55.105Z,0.69
2023-04-09T05:51:52.431Z,0.70
2023-04-09T05:52:52.417Z,0.70
2023-04-09T05:53:52.593Z,0.69
2023-04-09T05:54:53.041Z,0.69
2023-04-09T05:55:52.396Z,0.70
2023-04-09T05:56:52.438Z,0.68
2023-04-09T05:57:52.376Z,0.69
2023-04-09T05:58:52.413Z,0.69
2023-04-09T05:59:52.388Z,0.68
2023-04-09T06:00:52.355Z,0.70
2023-04-09T06:01:52.352Z,0.70
2023-04-09T06:02:52.399Z,0.69
2023-04-09T06:03:54.772Z,0.69
2023-04-09T06:04:52.365Z,0.69
2023-04-09T06:05:52.351Z,0.69
2023-04-09T06:06:52.341Z,0.69
2023-04-09T06:07:52.355Z,0.69
2023-04-09T06:08:52.334Z,0.71
2023-04-09T06:09:52.296Z,0.68
2023-04-09T06:10:52.318Z,0.68
2023-04-09T06:11:52.265Z,0.69
2023-04-09T06:12:52.303Z,0.68
2023-04-09T06:13:52.599Z,0.70
2023-04-09T06:14:52.391Z,0.69
2023-04-09T06:15:52.315Z,0.68
2023-04-09T06:16:52.287Z,0.68
2023-04-09T06:17:52.264Z,0.69
2023-04-09T06:18:52.227Z,0.69
2023-04-09T06:19:52.226Z,0.69
2023-04-09T06:20:52.214Z,0.69
2023-04-09T06:21:52.213Z,0.69
2023-04-09T06:22:52.206Z,0.69
2023-04-09T06:23:52.344Z,0.68
2023-04-09T06:24:52.263Z,0.69
2023-04-09T06:25:52.338Z,0.68
2023-04-09T06:26:52.350Z,0.69
2023-04-09T06:27:52.389Z,0.69
2023-04-09T06:28:52.438Z,0.70
2023-04-09T06:29:52.451Z,0.67
2023-04-09T06:30:52.532Z,0.69
2023-04-09T06:31:52.513Z,0.67
2023-04-09T06:32:55.156Z,0.70
2023-04-09T06:33:53.030Z,0.69
2023-04-09T06:34:52.515Z,0.70
2023-04-09T06:35:52.509Z,0.69
2023-04-09T06:36:52.502Z,0.69
2023-04-09T06:37:52.510Z,0.69
2023-04-09T06:38:52.489Z,0.67
2023-04-09T06:40:00.282Z,0.68
2023-04-09T06:40:53.494Z,0.68
2023-04-09T06:41:52.475Z,0.69
2023-04-09T06:42:52.486Z,0.69
2023-04-09T06:43:52.815Z,0.69
2023-04-09T06:44:52.462Z,0.68
2023-04-09T06:45:52.532Z,0.69
2023-04-09T06:46:52.465Z,0.68
2023-04-09T06:47:52.496Z,0.68
2023-04-09T06:48:52.431Z,0.69
2023-04-09T06:49:52.433Z,0.69
2023-04-09T06:50:52.413Z,0.68
2023-04-09T06:51:52.424Z,0.69
2023-04-09T06:52:52.394Z,0.69
2023-04-09T06:53:52.615Z,0.68
2023-04-09T06:54:52.389Z,0.68
2023-04-09T06:55:52.479Z,0.68
2023-04-09T06:56:52.435Z,0.68
2023-04-09T06:57:52.478Z,0.67
2023-04-09T06:58:52.512Z,0.69
2023-04-09T06:59:52.546Z,0.67
2023-04-09T07:00:52.548Z,0.69
2023-04-09T07:01:54.544Z,0.68
2023-04-09T07:02:52.814Z,0.69
2023-04-09T07:03:53.082Z,0.69
2023-04-09T07:04:52.693Z,0.69
2023-04-09T07:05:52.660Z,0.67
2023-04-09T07:06:52.716Z,0.68
2023-04-09T07:07:52.754Z,0.68
2023-04-09T07:08:52.911Z,0.67
2023-04-09T07:09:52.806Z,0.68
2023-04-09T07:10:52.836Z,0.68
2023-04-09T07:11:52.882Z,0.69
2023-04-09T07:12:52.882Z,0.68
2023-04-09T07:13:53.357Z,0.68
2023-04-09T07:14:52.948Z,0.68
2023-04-09T07:15:52.977Z,0.68
2023-04-09T07:16:53.022Z,0.69
2023-04-09T07:17:53.101Z,0.68
2023-04-09T07:18:53.064Z,0.68
2023-04-09T07:19:53.106Z,0.68
2023-04-09T07:20:53.151Z,0.69
2023-04-09T07:21:53.179Z,0.68
2023-04-09T07:22:53.181Z,0.67
2023-04-09T07:23:53.564Z,0.68
2023-04-09T07:24:53.248Z,0.67
2023-04-09T07:25:53.273Z,0.68
2023-04-09T07:26:53.304Z,0.68
2023-04-09T07:27:53.364Z,0.68
2023-04-09T07:28:53.386Z,0.67
2023-04-09T07:29:53.401Z,0.68
2023-04-09T07:30:53.416Z,0.67
2023-04-09T07:31:53.566Z,0.67
2023-04-09T07:32:53.536Z,0.69
2023-04-09T07:33:54.397Z,0.67
2023-04-09T07:34:53.526Z,0.68
2023-04-09T07:35:54.415Z,0.68
2023-04-09T07:36:53.551Z,0.68
2023-04-09T07:37:53.631Z,0.67
2023-04-09T07:38:53.913Z,0.67
2023-04-09T07:39:53.693Z,0.67
2023-04-09T07:40:53.662Z,0.68
2023-04-09T07:41:53.734Z,0.68
2023-04-09T07:42:53.777Z,0.68
2023-04-09T07:43:53.757Z,0.68
2023-04-09T07:44:53.825Z,0.68
2023-04-09T07:45:53.822Z,0.67
2023-04-09T07:46:53.846Z,0.67
2023-04-09T07:47:53.917Z,0.67
2023-04-09T07:48:54.078Z,0.67
2023-04-09T07:49:53.951Z,0.67
2023-04-09T07:50:53.987Z,0.68
2023-04-09T07:51:53.982Z,0.69
2023-04-09T07:52:54.009Z,0.68
2023-04-09T07:53:54.046Z,0.67
2023-04-09T07:54:54.106Z,0.68
2023-04-09T07:55:54.139Z,0.67
2023-04-09T07:56:54.170Z,0.67
2023-04-09T07:57:54.175Z,0.68
2023-04-09T07:58:54.384Z,0.68
2023-04-09T07:59:54.281Z,0.67
2023-04-09T08:00:54.269Z,0.69
2023-04-09T08:01:54.429Z,0.68
2023-04-09T08:02:54.562Z,0.68
2023-04-09T08:03:54.504Z,0.67
2023-04-09T08:04:54.641Z,0.67
2023-04-09T08:05:54.465Z,0.67
2023-04-09T08:06:54.488Z,0.68
2023-04-09T08:07:54.497Z,0.67
2023-04-09T08:08:54.708Z,0.66
2023-04-09T08:09:54.541Z,0.67
2023-04-09T08:10:54.580Z,0.67
2023-04-09T08:11:54.614Z,0.67
2023-04-09T08:12:54.621Z,0.69
2023-04-09T08:13:54.665Z,0.69
2023-04-09T08:14:54.698Z,0.67
2023-04-09T08:15:54.708Z,0.67
2023-04-09T08:16:54.782Z,0.67
2023-04-09T08:17:54.822Z,0.68
2023-04-09T08:18:55.149Z,0.67
2023-04-09T08:19:54.810Z,0.67
2023-04-09T08:20:54.846Z,0.68
2023-04-09T08:21:54.846Z,0.66
2023-04-09T08:22:54.862Z,0.67
2023-04-09T08:23:54.929Z,0.67
2023-04-09T08:24:54.945Z,0.67
2023-04-09T08:25:54.964Z,0.67
2023-04-09T08:26:55.008Z,0.67
2023-04-09T08:27:55.052Z,0.65
2023-04-09T08:28:55.226Z,0.67
2023-04-09T08:29:55.084Z,0.66
2023-04-09T08:30:55.076Z,0.66
2023-04-09T08:31:55.207Z,0.67
2023-04-09T08:32:55.203Z,0.67
2023-04-09T08:33:55.185Z,0.66
2023-04-09T08:34:55.215Z,0.66
2023-04-09T08:35:55.228Z,0.66
2023-04-09T08:36:55.239Z,0.65
2023-04-09T08:37:55.274Z,0.67
2023-04-09T08:38:55.625Z,0.66
2023-04-09T08:39:55.386Z,0.66
2023-04-09T08:40:55.377Z,0.66
2023-04-09T08:41:55.397Z,0.66
2023-04-09T08:42:55.429Z,0.66
2023-04-09T08:43:58.908Z,0.65
2023-04-09T08:44:55.460Z,0.65
2023-04-09T08:45:55.468Z,0.65
2023-04-09T08:46:56.596Z,0.65
2023-04-09T08:47:55.485Z,0.65
2023-04-09T08:48:55.847Z,0.65
2023-04-09T08:49:55.415Z,0.66
2023-04-09T08:50:55.407Z,0.65
2023-04-09T08:51:55.393Z,0.66
2023-04-09T08:52:55.365Z,0.66
2023-04-09T08:53:55.378Z,0.64
2023-04-09T08:54:55.354Z,0.65
2023-04-09T08:55:55.388Z,0.65
2023-04-09T08:56:55.372Z,0.66
2023-04-09T08:57:55.343Z,0.66
2023-04-09T08:58:55.623Z,0.65
2023-04-09T08:59:55.321Z,0.65
2023-04-09T09:00:55.364Z,0.65
2023-04-09T09:01:55.348Z,0.64
2023-04-09T09:02:55.385Z,0.64
2023-04-09T09:03:55.422Z,0.64
2023-04-09T09:04:55.303Z,0.64
2023-04-09T09:05:55.291Z,0.65
2023-04-09T09:06:56.666Z,0.63
2023-04-09T09:07:55.245Z,0.64
2023-04-09T09:08:55.253Z,0.64
2023-04-09T09:09:55.271Z,0.64
2023-04-09T09:10:55.244Z,0.65
2023-04-09T09:11:55.264Z,0.64
2023-04-09T09:12:55.263Z,0.65
2023-04-09T09:13:55.238Z,0.64
2023-04-09T09:14:55.255Z,0.64
2023-04-09T09:15:55.252Z,0.64
2023-04-09T09:16:55.212Z,0.64
2023-04-09T09:17:55.237Z,0.65
2023-04-09T09:18:55.457Z,0.65
2023-04-09T09:19:55.191Z,0.65
2023-04-09T09:20:55.205Z,0.63
2023-04-09T09:21:55.173Z,0.64
2023-04-09T09:22:55.750Z,0.64
2023-04-09T09:23:55.157Z,0.63
2023-04-09T09:24:55.160Z,0.63
2023-04-09T09:25:55.161Z,0.64
2023-04-09T09:26:55.147Z,0.64
2023-04-09T09:27:55.160Z,0.63
2023-04-09T09:28:55.421Z,0.63
2023-04-09T09:29:55.127Z,0.63
2023-04-09T09:30:55.169Z,0.63
2023-04-09T09:31:55.133Z,0.63
2023-04-09T09:32:55.269Z,0.62
2023-04-09T09:33:55.105Z,0.62
2023-04-09T09:34:55.127Z,0.63
2023-04-09T09:35:55.095Z,0.61
2023-04-09T09:36:55.085Z,0.62
2023-04-09T09:37:55.124Z,0.62
2023-04-09T09:38:55.520Z,0.62
2023-04-09T09:39:55.141Z,0.62
2023-04-09T09:40:55.217Z,0.61
2023-04-09T09:41:55.173Z,0.62
2023-04-09T09:42:55.206Z,0.61
2023-04-09T09:43:55.184Z,0.61
2023-04-09T09:44:55.240Z,0.62
2023-04-09T09:45:55.293Z,0.61
2023-04-09T09:46:55.239Z,0.61
2023-04-09T09:47:55.301Z,0.61
2023-04-09T09:48:55.390Z,0.62
2023-04-09T09:49:55.329Z,0.62
2023-04-09T09:50:55.345Z,0.61
2023-04-09T09:51:55.327Z,0.62
2023-04-09T09:52:55.349Z,0.61
2023-04-09T09:53:55.385Z,0.61
2023-04-09T09:54:55.416Z,0.61
2023-04-09T09:55:55.396Z,0.61
2023-04-09T09:56:55.419Z,0.61
2023-04-09T09:57:55.451Z,0.60
2023-04-09T09:58:55.445Z,0.60
2023-04-09T09:59:55.452Z,0.61
2023-04-09T10:00:55.481Z,0.60
2023-04-09T10:01:55.553Z,0.62
2023-04-09T10:02:55.623Z,0.61
2023-04-09T10:03:55.632Z,0.62
2023-04-09T10:04:55.575Z,0.61
2023-04-09T10:05:55.536Z,0.62
2023-04-09T10:06:55.543Z,0.62
2023-04-09T10:07:55.576Z,0.61
2023-04-09T10:08:55.611Z,0.61
2023-04-09T10:09:55.633Z,0.61
2023-04-09T10:10:55.637Z,0.61
2023-04-09T10:11:55.645Z,0.61
2023-04-09T10:12:55.683Z,0.62
2023-04-09T10:13:55.677Z,0.62
2023-04-09T10:14:55.729Z,0.61
2023-04-09T10:15:55.793Z,0.62
2023-04-09T10:16:55.735Z,0.62
2023-04-09T10:17:55.798Z,0.61
2023-04-09T10:18:55.746Z,0.61
2023-04-09T10:19:55.784Z,0.63
2023-04-09T10:20:55.799Z,0.63
2023-04-09T10:21:55.827Z,0.63
2023-04-09T10:22:55.822Z,0.62
2023-04-09T10:23:55.809Z,0.62
2023-04-09T10:24:55.826Z,0.62
2023-04-09T10:25:55.847Z,0.62
2023-04-09T10:26:55.846Z,0.63
2023-04-09T10:27:55.871Z,0.62
2023-04-09T10:28:55.885Z,0.62
2023-04-09T10:29:55.907Z,0.61
2023-04-09T10:30:55.897Z,0.62
2023-04-09T10:31:55.949Z,0.61
2023-04-09T10:32:55.933Z,0.62
2023-04-09T10:33:55.923Z,0.62
2023-04-09T10:34:55.956Z,0.61
2023-04-09T10:35:55.973Z,0.61
2023-04-09T10:36:55.948Z,0.63
2023-04-09T10:37:55.959Z,0.62
2023-04-09T10:38:55.952Z,0.62
2023-04-09T10:39:55.958Z,0.62
2023-04-09T10:40:55.972Z,0.62
2023-04-09T10:41:55.984Z,0.62
2023-04-09T10:42:55.985Z,0.62
2023-04-09T10:43:55.985Z,0.62
2023-04-09T10:44:56.000Z,0.63
2023-04-09T10:45:56.007Z,0.64
2023-04-09T10:46:56.144Z,0.63
2023-04-09T10:47:56.075Z,0.64
2023-04-09T10:48:56.055Z,0.64
2023-04-09T10:49:56.053Z,0.64
2023-04-09T10:50:56.064Z,0.63
2023-04-09T10:51:56.051Z,0.62
2023-04-09T10:52:56.071Z,0.63
2023-04-09T10:53:56.074Z,0.63
2023-04-09T10:54:56.077Z,0.62
2023-04-09T10:55:56.118Z,0.63
2023-04-09T10:56:56.099Z,0.61
2023-04-09T10:57:56.095Z,0.62
2023-04-09T10:58:56.094Z,0.62
2023-04-09T10:59:56.096Z,0.63
2023-04-09T11:00:56.120Z,0.63
2023-04-09T11:01:56.153Z,0.62
2023-04-09T11:02:56.253Z,0.61
2023-04-09T11:03:56.221Z,0.63
2023-04-09T11:04:56.178Z,0.62
2023-04-09T11:05:56.113Z,0.63
2023-04-09T11:06:56.132Z,0.61
2023-04-09T11:07:56.157Z,0.61
2023-04-09T11:08:56.130Z,0.63
2023-04-09T11:09:56.179Z,0.63
2023-04-09T11:10:56.161Z,0.62
2023-04-09T11:11:56.163Z,0.63
2023-04-09T11:12:56.166Z,0.64
2023-04-09T11:13:56.139Z,0.63
2023-04-09T11:14:56.140Z,0.61
2023-04-09T11:15:56.222Z,0.61
2023-04-09T11:16:56.153Z,0.60
2023-04-09T11:17:56.234Z,0.61
2023-04-09T11:18:56.148Z,0.62
2023-04-09T11:19:56.134Z,0.58
2023-04-09T11:20:56.145Z,0.60
2023-04-09T11:21:56.141Z,0.60
2023-04-09T11:22:56.159Z,0.59
2023-04-09T11:23:56.114Z,0.62
2023-04-09T11:24:56.141Z,0.62
2023-04-09T11:25:56.147Z,0.62
2023-04-09T11:26:56.117Z,0.60
2023-04-09T11:27:56.128Z,0.61
2023-04-09T11:28:56.128Z,0.61
2023-04-09T11:29:56.150Z,0.60
2023-04-09T11:30:56.090Z,0.61
2023-04-09T11:31:56.177Z,0.57
2023-04-09T11:32:56.163Z,0.60
2023-04-09T11:33:56.099Z,0.59
2023-04-09T11:34:56.125Z,0.60
2023-04-09T11:35:56.095Z,0.58
2023-04-09T11:36:56.071Z,0.60
2023-04-09T11:37:56.084Z,0.59
2023-04-09T11:38:56.093Z,0.58
2023-04-09T11:39:57.842Z,0.61
2023-04-09T11:40:56.090Z,0.60
2023-04-09T11:41:56.091Z,0.62
2023-04-09T11:42:56.067Z,0.59
2023-04-09T11:43:56.124Z,0.62
2023-04-09T11:44:56.057Z,0.60
2023-04-09T11:45:57.648Z,0.60
2023-04-09T11:46:56.112Z,0.56
2023-04-09T11:47:56.122Z,0.59
2023-04-09T11:48:56.065Z,0.57
2023-04-09T11:49:56.069Z,0.62
2023-04-09T11:50:56.065Z,0.59
2023-04-09T11:51:56.029Z,0.61
2023-04-09T11:52:56.042Z,0.61
2023-04-09T11:53:56.068Z,0.62
2023-04-09T11:54:56.070Z,0.60
2023-04-09T11:55:56.096Z,0.59
2023-04-09T11:56:56.100Z,0.60
2023-04-09T11:57:56.025Z,0.60
2023-04-09T11:58:56.061Z,0.63
2023-04-09T11:59:56.034Z,0.60
2023-04-09T12:00:56.026Z,0.62
2023-04-09T12:01:56.067Z,0.58
2023-04-09T12:02:56.256Z,0.59
2023-04-09T12:03:56.274Z,0.59
2023-04-09T12:04:56.204Z,0.62
2023-04-09T12:05:56.067Z,0.58
2023-04-09T12:06:56.079Z,0.61
2023-04-09T12:07:56.737Z,0.58
2023-04-09T12:08:56.096Z,0.60
2023-04-09T12:09:56.121Z,0.58
2023-04-09T12:10:56.092Z,0.57
2023-04-09T12:11:56.138Z,0.61
2023-04-09T12:12:56.155Z,0.57
2023-04-09T12:13:56.142Z,0.60
2023-04-09T12:14:56.194Z,0.61
2023-04-09T12:15:57.461Z,0.58
2023-04-09T12:16:56.434Z,0.57
2023-04-09T12:17:56.325Z,0.57
2023-04-09T12:18:56.325Z,0.58
2023-04-09T12:19:56.327Z,0.57
2023-04-09T12:20:56.356Z,0.60
2023-04-09T12:21:56.376Z,0.56
2023-04-09T12:22:56.434Z,0.59
2023-04-09T12:23:56.453Z,0.58
2023-04-09T12:24:56.501Z,0.61
2023-04-09T12:25:56.536Z,0.59
2023-04-09T12:26:56.586Z,0.59
2023-04-09T12:27:56.582Z,0.59
2023-04-09T12:28:56.600Z,0.60
2023-04-09T12:29:56.674Z,0.60
2023-04-09T12:30:56.732Z,0.58
2023-04-09T12:31:56.756Z,0.56
2023-04-09T12:32:56.757Z,0.58
2023-04-09T12:33:56.821Z,0.58
2023-04-09T12:34:56.837Z,0.61
2023-04-09T12:35:56.879Z,0.63
2023-04-09T12:36:56.920Z,0.58
2023-04-09T12:37:57.009Z,0.61
2023-04-09T12:38:57.063Z,0.59
2023-04-09T12:39:57.135Z,0.59
2023-04-09T12:40:57.183Z,0.60
2023-04-09T12:41:57.207Z,0.60
2023-04-09T12:42:57.210Z,0.61
2023-04-09T12:43:57.235Z,0.59
2023-04-09T12:44:57.292Z,0.62
2023-04-09T12:45:57.376Z,0.59
2023-04-09T12:46:57.393Z,0.61
2023-04-09T12:47:57.538Z,0.60
2023-04-09T12:48:57.539Z,0.57
2023-04-09T12:49:57.562Z,0.60
2023-04-09T12:50:57.594Z,0.60
2023-04-09T12:51:57.621Z,0.61
2023-04-09T12:52:57.686Z,0.59
2023-04-09T12:53:57.738Z,0.61
2023-04-09T12:54:57.800Z,0.61
2023-04-09T12:55:57.794Z,0.58
2023-04-09T12:56:57.820Z,0.60
2023-04-09T12:57:57.909Z,0.63
2023-04-09T12:58:57.947Z,0.60
2023-04-09T12:59:58.021Z,0.63
2023-04-09T13:00:58.116Z,0.60
2023-04-09T13:01:58.263Z,0.61
2023-04-09T13:02:58.321Z,0.57
2023-04-09T13:03:58.646Z,0.58
2023-04-09T13:04:58.265Z,0.59
2023-04-09T13:05:58.349Z,0.62
2023-04-09T13:06:58.403Z,0.59
2023-04-09T13:07:58.466Z,0.57
2023-04-09T13:08:58.540Z,0.58
2023-04-09T13:09:58.586Z,0.58
2023-04-09T13:10:58.564Z,0.57
2023-04-09T13:11:58.628Z,0.60
2023-04-09T13:12:58.645Z,0.58
2023-04-09T13:13:58.645Z,0.60
2023-04-09T13:14:58.747Z,0.60
2023-04-09T13:15:58.753Z,0.58
2023-04-09T13:16:58.825Z,0.60
2023-04-09T13:17:58.846Z,0.59
2023-04-09T13:18:58.926Z,0.59